createdAt,value
2023-02-22T00:03:32.439Z,33.15
2023-02-22T00:06:04.191Z,37.53
2023-02-22T00:08:36.455Z,41.53
2023-02-22T00:11:08.411Z,45.20
2023-02-22T00:13:35.740Z,44.90
2023-02-22T00:16:02.904Z,43.45
2023-02-22T00:18:29.997Z,44.88
2023-02-22T00:21:00.035Z,61.83
2023-02-22T00:23:29.669Z,58.17
2023-02-22T00:25:58.226Z,48.63
2023-02-22T00:28:25.483Z,47.13
2023-02-22T00:30:54.704Z,45.85
2023-02-22T00:33:21.408Z,47.55
2023-02-22T00:35:48.091Z,47.55
2023-02-22T00:38:18.476Z,47.20
2023-02-22T00:40:45.560Z,48.78
2023-02-22T00:43:12.488Z,50.60
2023-02-22T00:45:39.179Z,49.45
2023-02-22T00:48:07.109Z,52.90
2023-02-22T00:50:33.916Z,54.70
2023-02-22T00:53:03.768Z,57.38
2023-02-22T00:55:33.144Z,56.53
2023-02-22T00:58:02.175Z,60.85
2023-02-22T01:00:31.570Z,53.67
2023-02-22T01:03:00.404Z,55.13
2023-02-22T01:05:29.825Z,55.78
2023-02-22T01:07:58.248Z,59.60
2023-02-22T01:10:27.290Z,59.65
2023-02-22T01:12:55.023Z,58.28
2023-02-22T01:15:24.085Z,59.67
2023-02-22T01:17:53.702Z,62.15
2023-02-22T01:20:22.823Z,62.00
2023-02-22T01:22:51.592Z,61.55
2023-02-22T01:25:21.080Z,60.92
2023-02-22T01:27:50.251Z,60.92
2023-02-22T01:30:21.393Z,57.22
2023-02-22T01:32:48.114Z,61.88
2023-02-22T01:35:18.652Z,57.67
2023-02-22T01:37:45.683Z,56.55
2023-02-22T01:40:23.456Z,54.15
2023-02-22T01:42:55.360Z,54.67
2023-02-22T01:45:31.013Z,54.67
2023-02-22T01:48:04.358Z,55.10
2023-02-22T01:50:34.812Z,52.45
2023-02-22T01:53:03.304Z,49.67
2023-02-22T01:55:31.995Z,52.17
2023-02-22T01:57:58.656Z,51.97
2023-02-22T02:00:27.645Z,50.60
2023-02-22T02:03:06.503Z,48.88
2023-02-22T02:05:36.742Z,47.42
2023-02-22T02:08:14.917Z,45.40
2023-02-22T02:10:42.805Z,43.83
2023-02-22T02:13:10.179Z,43.95
2023-02-22T02:15:37.219Z,43.42
2023-02-22T02:18:07.341Z,42.00
2023-02-22T02:20:49.257Z,41.20
2023-02-22T02:23:36.752Z,39.20
2023-02-22T02:26:09.361Z,38.90
2023-02-22T02:29:01.958Z,40.22
2023-02-22T02:31:46.948Z,38.67
2023-02-22T02:37:15.013Z,40.47
2023-02-22T02:39:53.141Z,41.17
2023-02-22T02:42:25.196Z,40.42
2023-02-22T02:45:08.729Z,44.63
2023-02-22T02:47:40.709Z,48.42
2023-02-22T02:50:18.311Z,46.20
2023-02-22T02:52:46.544Z,51.50
2023-02-22T02:55:14.409Z,45.88
2023-02-22T02:57:40.997Z,45.55
2023-02-22T03:00:24.212Z,45.80
2023-02-22T03:03:18.665Z,43.53
2023-02-22T03:05:52.594Z,42.72
2023-02-22T03:08:24.570Z,42.08
2023-02-22T03:11:15.292Z,41.20
2023-02-22T03:14:11.302Z,40.85
2023-02-22T03:16:59.228Z,40.17
2023-02-22T03:19:45.896Z,44.83
2023-02-22T03:22:26.175Z,42.67
2023-02-22T03:24:59.057Z,42.45
2023-02-22T03:27:37.161Z,43.75
2023-02-22T03:30:20.164Z,42.42
2023-02-22T03:32:52.820Z,41.88
2023-02-22T03:35:24.071Z,44.15
2023-02-22T03:37:56.751Z,45.42
2023-02-22T03:40:29.078Z,44.47
2023-02-22T03:43:02.187Z,47.55
2023-02-22T03:45:32.488Z,44.58
2023-02-22T03:48:14.543Z,44.90
2023-02-22T03:50:41.399Z,44.97
2023-02-22T03:53:09.619Z,47.63
2023-02-22T03:55:36.198Z,46.95
2023-02-22T03:58:09.423Z,47.60
2023-02-22T04:00:36.137Z,44.72
2023-02-22T04:03:03.289Z,46.72
2023-02-22T04:05:30.148Z,47.55
2023-02-22T04:07:57.536Z,45.80
2023-02-22T04:10:24.934Z,47.97
2023-02-22T04:12:51.521Z,52.33
2023-02-22T04:15:21.663Z,53.05
2023-02-22T04:17:48.345Z,54.10
2023-02-22T04:20:19.947Z,54.60
2023-02-22T04:22:47.446Z,61.00
2023-02-22T04:25:14.540Z,62.50
2023-02-22T04:27:41.517Z,60.97
2023-02-22T04:30:08.947Z,62.90
2023-02-22T04:32:35.536Z,63.22
2023-02-22T04:35:02.602Z,63.10
2023-02-22T04:37:29.185Z,66.25
2023-02-22T04:39:55.757Z,63.80
2023-02-22T04:42:23.641Z,64.95
2023-02-22T04:44:50.171Z,63.83
2023-02-22T04:47:16.720Z,61.63
2023-02-22T04:49:44.074Z,62.90
2023-02-22T04:52:10.656Z,62.83
2023-02-22T04:54:37.548Z,59.25
2023-02-22T04:57:04.198Z,62.40
2023-02-22T04:59:30.788Z,63.28
2023-02-22T05:01:58.095Z,62.10
2023-02-22T05:04:24.678Z,64.90
2023-02-22T05:06:52.744Z,63.35
2023-02-22T05:09:21.236Z,61.22
2023-02-22T05:11:48.065Z,60.65
2023-02-22T05:14:14.665Z,62.15
2023-02-22T05:16:41.422Z,61.00
2023-02-22T05:19:08.470Z,57.80
2023-02-22T05:21:35.040Z,57.63
2023-02-22T05:24:01.705Z,58.58
2023-02-22T05:26:28.270Z,55.78
2023-02-22T05:28:54.849Z,54.20
2023-02-22T05:31:21.510Z,51.58
2023-02-22T05:33:48.495Z,53.25
2023-02-22T05:36:16.782Z,50.50
2023-02-22T05:38:44.817Z,53.08
2023-02-22T05:41:12.434Z,50.83
2023-02-22T05:43:40.323Z,49.45
2023-02-22T05:46:07.539Z,48.05
2023-02-22T05:48:34.528Z,50.25
2023-02-22T05:51:01.171Z,47.97
2023-02-22T05:53:27.968Z,43.63
2023-02-22T05:55:54.614Z,38.55
2023-02-22T05:58:22.037Z,34.80
2023-02-22T06:00:48.754Z,34.58
2023-02-22T06:03:15.733Z,33.97
2023-02-22T06:05:42.577Z,34.00
2023-02-22T06:08:09.292Z,35.80
2023-02-22T06:10:36.113Z,35.92
2023-02-22T06:13:03.438Z,37.08
2023-02-22T06:15:30.461Z,39.40
2023-02-22T06:17:58.806Z,40.80
2023-02-22T06:20:27.361Z,43.03
2023-02-22T06:22:56.424Z,46.78
2023-02-22T06:25:25.698Z,48.17
2023-02-22T06:27:52.338Z,50.80
2023-02-22T06:30:21.754Z,47.92
2023-02-22T06:32:48.374Z,50.05
2023-02-22T06:35:15.963Z,51.92
2023-02-22T06:37:42.613Z,54.53
2023-02-22T06:40:11.246Z,50.50
2023-02-22T06:42:39.233Z,48.80
2023-02-22T06:45:06.201Z,49.38
2023-02-22T06:47:32.778Z,48.95
2023-02-22T06:50:00.977Z,50.72
2023-02-22T06:52:27.727Z,50.85
2023-02-22T06:54:54.312Z,50.78
2023-02-22T06:57:20.934Z,50.97
2023-02-22T06:59:47.516Z,48.17
2023-02-22T07:02:14.599Z,44.22
2023-02-22T07:04:43.420Z,45.25
2023-02-22T07:07:10.758Z,43.08
2023-02-22T07:09:37.473Z,40.22
2023-02-22T07:12:04.308Z,31.80
2023-02-22T07:14:30.846Z,31.45
2023-02-22T07:16:57.429Z,27.15
2023-02-22T07:19:24.851Z,26.35
2023-02-22T07:21:57.000Z,25.02
2023-02-22T07:24:23.565Z,26.08
2023-02-22T07:26:50.127Z,25.83
2023-02-22T07:29:16.719Z,27.08
2023-02-22T07:31:43.303Z,25.52
2023-02-22T07:34:09.855Z,25.70
2023-02-22T07:36:36.429Z,27.17
2023-02-22T07:39:03.020Z,26.58
2023-02-22T07:41:29.649Z,28.90
2023-02-22T07:43:56.205Z,29.20
2023-02-22T07:46:22.743Z,27.73
2023-02-22T07:48:49.355Z,27.90
2023-02-22T07:51:17.811Z,27.45
2023-02-22T07:53:44.509Z,27.45
2023-02-22T07:56:11.032Z,28.08
2023-02-22T07:58:37.679Z,27.50
2023-02-22T08:01:04.828Z,28.25
2023-02-22T08:03:38.066Z,26.67
2023-02-22T08:06:07.109Z,28.90
2023-02-22T08:08:34.532Z,27.58
2023-02-22T08:11:01.354Z,29.10
2023-02-22T08:13:28.228Z,28.38
2023-02-22T08:15:54.950Z,27.80
2023-02-22T08:18:22.790Z,29.10
2023-02-22T08:20:51.956Z,28.38
2023-02-22T08:23:20.337Z,28.95
2023-02-22T08:25:47.004Z,26.67
2023-02-22T08:28:16.051Z,28.77
2023-02-22T08:30:46.307Z,26.75
2023-02-22T08:33:16.790Z,26.65
2023-02-22T08:35:43.557Z,27.73
2023-02-22T08:38:17.870Z,28.38
2023-02-22T08:40:44.778Z,27.35
2023-02-22T08:43:13.456Z,29.55
2023-02-22T08:45:40.902Z,33.17
2023-02-22T08:48:07.799Z,35.85
2023-02-22T08:50:35.599Z,32.50
2023-02-22T08:53:04.322Z,33.45
2023-02-22T08:55:33.682Z,37.08
2023-02-22T08:58:02.952Z,39.03
2023-02-22T09:00:33.131Z,45.13
2023-02-22T09:03:01.328Z,42.00
2023-02-22T09:05:29.768Z,45.38
2023-02-22T09:07:57.492Z,48.60
2023-02-22T09:10:27.031Z,47.40
2023-02-22T09:12:57.116Z,48.35
2023-02-22T09:15:27.291Z,49.25
2023-02-22T09:17:54.448Z,51.70
2023-02-22T09:20:22.740Z,55.10
2023-02-22T09:22:50.044Z,55.15
2023-02-22T09:25:18.148Z,57.80
2023-02-22T09:27:48.019Z,57.53
2023-02-22T09:30:25.586Z,58.38
2023-02-22T09:32:58.057Z,56.97
2023-02-22T09:35:27.262Z,57.03
2023-02-22T09:37:59.214Z,53.42
2023-02-22T09:40:30.187Z,54.67
2023-02-22T09:43:05.166Z,52.53
2023-02-22T09:45:45.136Z,51.72
2023-02-22T09:48:21.701Z,55.22
2023-02-22T09:50:51.349Z,54.15
2023-02-22T09:53:36.180Z,58.92
2023-02-22T09:58:45.882Z,58.70
2023-02-22T10:01:43.464Z,57.40
2023-02-22T10:04:20.028Z,62.28
2023-02-22T10:07:11.597Z,62.95
2023-02-22T10:09:44.596Z,61.10
2023-02-22T10:12:14.029Z,63.80
2023-02-22T10:14:51.768Z,62.83
2023-02-22T10:17:39.429Z,57.63
2023-02-22T10:20:28.828Z,57.95
2023-02-22T10:23:22.977Z,52.50
2023-02-22T10:25:57.428Z,52.03
2023-02-22T10:31:02.629Z,53.90
2023-02-22T10:33:46.307Z,57.38
2023-02-22T10:36:20.082Z,55.30
2023-02-22T10:38:58.102Z,60.40
2023-02-22T10:41:34.291Z,55.33
2023-02-22T10:44:03.056Z,54.40
2023-02-22T10:46:31.968Z,55.00
2023-02-22T10:49:04.798Z,54.97
2023-02-22T10:51:32.869Z,56.20
2023-02-22T10:54:08.823Z,53.95
2023-02-22T10:56:35.582Z,53.50
2023-02-22T10:59:06.064Z,49.85
2023-02-22T11:01:32.663Z,51.90
2023-02-22T11:04:09.716Z,52.70
2023-02-22T11:06:37.475Z,54.33
2023-02-22T11:09:19.248Z,54.95
2023-02-22T11:11:47.824Z,53.58
2023-02-22T11:14:27.445Z,53.17
2023-02-22T11:16:56.968Z,51.22
2023-02-22T11:19:31.954Z,50.38
2023-02-22T11:22:32.864Z,53.67
2023-02-22T11:25:04.292Z,53.20
2023-02-22T11:27:33.840Z,54.00
2023-02-22T11:30:32.043Z,55.95
2023-02-22T11:33:16.920Z,57.20
2023-02-22T11:38:24.290Z,53.38
2023-02-22T11:41:14.637Z,56.00
2023-02-22T11:43:46.271Z,57.33
2023-02-22T11:46:21.618Z,56.55
2023-02-22T11:49:10.131Z,55.28
2023-02-22T11:51:59.727Z,53.05
2023-02-22T11:55:09.875Z,55.25
2023-02-22T11:57:51.559Z,51.92
2023-02-22T12:00:39.760Z,52.33
2023-02-22T12:03:18.214Z,46.13
2023-02-22T12:05:59.914Z,44.17
2023-02-22T12:08:29.534Z,39.53
2023-02-22T12:11:10.124Z,37.72
2023-02-22T12:13:45.486Z,36.05
2023-02-22T12:16:25.133Z,36.67
2023-02-22T12:19:16.587Z,35.95
2023-02-22T12:21:46.875Z,35.80
2023-02-22T12:24:23.953Z,34.40
2023-02-22T12:27:12.182Z,33.92
2023-02-22T12:29:48.523Z,34.17
2023-02-22T12:32:24.778Z,34.53
2023-02-22T12:35:25.869Z,33.67
2023-02-22T12:37:56.180Z,35.38
2023-02-22T12:40:58.091Z,34.30
2023-02-22T12:43:34.206Z,35.05
2023-02-22T12:46:10.525Z,37.35
2023-02-22T12:48:54.220Z,39.38
2023-02-22T12:51:43.288Z,39.95
2023-02-22T12:54:26.549Z,40.95
2023-02-22T12:57:00.789Z,41.75
2023-02-22T12:59:39.117Z,42.22
2023-02-22T13:02:23.908Z,45.33
2023-02-22T13:04:50.707Z,43.65
2023-02-22T13:07:23.202Z,42.75
2023-02-22T13:10:19.246Z,44.22
2023-02-22T13:13:03.901Z,44.30
2023-02-22T13:15:52.345Z,43.85
2023-02-22T13:18:50.543Z,42.65
2023-02-22T13:21:55.556Z,41.95
2023-02-22T13:24:39.233Z,41.95
2023-02-22T13:27:17.361Z,44.50
2023-02-22T13:29:52.196Z,44.95
2023-02-22T13:32:45.455Z,44.80
2023-02-22T13:35:24.140Z,76.05
2023-02-22T13:38:13.691Z,48.38
2023-02-22T13:41:34.201Z,45.00
2023-02-22T13:44:14.955Z,42.78
2023-02-22T13:47:07.152Z,44.05
2023-02-22T13:50:15.281Z,43.47
2023-02-22T13:52:43.306Z,44.90
2023-02-22T13:55:20.505Z,45.55
2023-02-22T13:57:51.668Z,41.38
2023-02-22T14:00:24.326Z,42.50
2023-02-22T14:03:10.561Z,40.95
2023-02-22T14:05:43.421Z,39.83
2023-02-22T14:08:19.215Z,37.53
2023-02-22T14:10:52.196Z,36.13
2023-02-22T14:13:22.526Z,35.10
2023-02-22T14:15:59.915Z,33.67
2023-02-22T14:18:30.754Z,32.40
2023-02-22T14:21:20.999Z,31.90
2023-02-22T14:23:56.010Z,32.95
2023-02-22T14:26:37.420Z,31.38
2023-02-22T14:29:09.817Z,32.60
2023-02-22T14:31:45.024Z,34.47
2023-02-22T14:34:15.331Z,33.80
2023-02-22T14:36:47.964Z,36.88
2023-02-22T14:39:29.416Z,33.28
2023-02-22T14:42:02.345Z,36.08
2023-02-22T14:44:39.706Z,34.38
2023-02-22T14:47:14.095Z,36.70
2023-02-22T14:49:49.036Z,37.42
2023-02-22T14:52:24.877Z,36.28
2023-02-22T14:54:59.679Z,39.20
2023-02-22T14:57:48.427Z,42.45
2023-02-22T15:00:30.625Z,45.28
2023-02-22T15:02:59.609Z,47.85
2023-02-22T15:05:30.107Z,47.20
2023-02-22T15:08:02.676Z,49.25
2023-02-22T15:10:42.786Z,47.63
2023-02-22T15:13:15.489Z,46.92
2023-02-22T15:15:54.686Z,48.92
2023-02-22T15:18:27.262Z,49.15
2023-02-22T15:20:58.500Z,48.33
2023-02-22T15:23:30.388Z,50.00
2023-02-22T15:25:58.056Z,52.75
2023-02-22T15:28:28.967Z,52.05
2023-02-22T15:31:25.153Z,55.95
2023-02-22T15:33:53.574Z,56.72
2023-02-22T15:36:25.435Z,56.75
2023-02-22T15:38:55.823Z,56.83
2023-02-22T15:41:32.455Z,56.83
2023-02-22T15:44:14.104Z,57.92
2023-02-22T15:46:49.336Z,56.40
2023-02-22T15:49:15.838Z,54.05
2023-02-22T15:51:46.456Z,54.88
2023-02-22T15:54:26.528Z,56.33
2023-02-22T15:56:56.810Z,54.28
2023-02-22T15:59:30.401Z,52.35
2023-02-22T16:01:58.948Z,54.80
2023-02-22T16:04:30.171Z,52.97
2023-02-22T16:07:08.124Z,52.58
2023-02-22T16:09:34.842Z,52.75
2023-02-22T16:12:10.928Z,53.85
2023-02-22T16:14:40.413Z,50.85
2023-02-22T16:17:30.863Z,48.20
2023-02-22T16:20:00.171Z,44.30
2023-02-22T16:22:34.932Z,46.63
2023-02-22T16:25:18.245Z,44.53
2023-02-22T16:27:57.480Z,40.17
2023-02-22T16:30:28.420Z,37.10
2023-02-22T16:32:57.083Z,37.88
2023-02-22T16:35:30.844Z,33.45
2023-02-22T16:38:00.766Z,33.53
2023-02-22T16:40:34.557Z,31.65
2023-02-22T16:43:04.620Z,31.67
2023-02-22T16:45:31.330Z,31.08
2023-02-22T16:47:59.258Z,31.13
2023-02-22T16:50:25.997Z,32.53
2023-02-22T16:52:55.737Z,31.73
2023-02-22T16:55:22.716Z,31.65
2023-02-22T16:57:50.173Z,32.17
2023-02-22T17:00:31.079Z,32.30
2023-02-22T17:03:03.955Z,33.42
2023-02-22T17:05:31.513Z,36.65
2023-02-22T17:07:58.104Z,36.63
2023-02-22T17:10:26.167Z,39.00
2023-02-22T17:12:56.225Z,38.83
2023-02-22T17:15:25.596Z,40.25
2023-02-22T17:17:53.111Z,41.17
2023-02-22T17:20:31.665Z,41.13
2023-02-22T17:23:08.501Z,44.72
2023-02-22T17:25:42.210Z,46.35
2023-02-22T17:28:09.637Z,47.70
2023-02-22T17:30:36.791Z,49.97
2023-02-22T17:33:06.768Z,54.78
2023-02-22T17:35:37.310Z,53.95
2023-02-22T17:38:06.350Z,55.58
2023-02-22T17:40:35.959Z,57.25
2023-02-22T17:43:03.004Z,62.10
2023-02-22T17:45:30.315Z,61.47
2023-02-22T17:47:59.187Z,61.80
2023-02-22T17:50:26.684Z,63.53
2023-02-22T17:52:54.774Z,65.55
2023-02-22T17:55:22.003Z,67.07
2023-02-22T17:57:56.840Z,70.65
2023-02-22T18:00:24.409Z,70.68
2023-02-22T18:02:51.782Z,72.53
2023-02-22T18:05:19.143Z,73.50
2023-02-22T18:07:46.437Z,73.65
2023-02-22T18:10:13.503Z,75.68
2023-02-22T18:12:41.072Z,78.47
2023-02-22T18:15:10.899Z,78.10
2023-02-22T18:17:38.035Z,79.35
2023-02-22T18:20:11.678Z,80.35
2023-02-22T18:22:43.423Z,82.88
2023-02-22T18:25:15.788Z,84.30
2023-02-22T18:27:43.341Z,83.93
2023-02-22T18:30:12.065Z,79.72
2023-02-22T18:32:39.712Z,81.82
2023-02-22T18:35:07.152Z,77.97
2023-02-22T18:37:34.054Z,78.90
2023-02-22T18:40:00.803Z,79.68
2023-02-22T18:42:28.263Z,70.45
2023-02-22T18:45:00.668Z,61.97
2023-02-22T18:47:27.535Z,61.67
2023-02-22T18:49:54.242Z,60.83
2023-02-22T18:52:21.109Z,63.92
2023-02-22T18:54:49.060Z,66.00
2023-02-22T18:57:16.973Z,69.85
2023-02-22T18:59:43.916Z,68.63
2023-02-22T19:02:15.361Z,62.00
2023-02-22T19:04:44.101Z,51.70
2023-02-22T19:07:10.723Z,43.22
2023-02-22T19:09:37.440Z,39.85
2023-02-22T19:12:04.233Z,39.60
2023-02-22T19:14:30.844Z,39.95
2023-02-22T19:17:01.457Z,37.17
2023-02-22T19:19:28.528Z,37.53
2023-02-22T19:21:56.336Z,36.30
2023-02-22T19:24:23.120Z,35.05
2023-02-22T19:26:57.348Z,33.80
2023-02-22T19:29:24.056Z,33.53
2023-02-22T19:31:51.938Z,34.25
2023-02-22T19:34:21.833Z,34.50
2023-02-22T19:36:48.953Z,33.90
2023-02-22T19:39:17.639Z,34.38
2023-02-22T19:41:44.518Z,33.65
2023-02-22T19:44:12.261Z,33.55
2023-02-22T19:46:39.873Z,33.33
2023-02-22T19:49:07.281Z,36.08
2023-02-22T19:51:34.427Z,36.70
2023-02-22T19:54:03.835Z,33.88
2023-02-22T19:56:31.557Z,34.30
2023-02-22T19:59:02.457Z,33.67
2023-02-22T20:01:33.202Z,33.33
2023-02-22T20:04:03.740Z,33.50
2023-02-22T20:06:41.970Z,31.55
2023-02-22T20:09:12.924Z,30.67
2023-02-22T20:11:39.961Z,30.25
2023-02-22T20:14:06.651Z,32.15
2023-02-22T20:16:34.249Z,31.10
2023-02-22T20:19:01.509Z,32.15
2023-02-22T20:21:33.020Z,32.63
2023-02-22T20:24:01.662Z,30.98
2023-02-22T20:26:30.882Z,33.25
2023-02-22T20:28:58.751Z,31.92
2023-02-22T20:31:25.769Z,33.08
2023-02-22T20:33:55.473Z,32.65
2023-02-22T20:36:22.330Z,33.33
2023-02-22T20:38:52.900Z,33.08
2023-02-22T20:41:26.189Z,33.70
2023-02-22T20:43:55.222Z,35.97
2023-02-22T20:46:23.671Z,34.75
2023-02-22T20:48:55.395Z,33.05
2023-02-22T20:51:22.221Z,34.38
2023-02-22T20:53:48.997Z,32.78
2023-02-22T20:56:21.842Z,33.78
2023-02-22T20:58:48.716Z,34.03
2023-02-22T21:01:17.264Z,34.28
2023-02-22T21:03:44.150Z,35.35
2023-02-22T21:06:15.283Z,35.58
2023-02-22T21:08:49.213Z,33.85
2023-02-22T21:11:17.920Z,34.30
2023-02-22T21:13:44.801Z,35.95
2023-02-22T21:16:18.662Z,36.30
2023-02-22T21:18:45.438Z,36.00
2023-02-22T21:21:12.636Z,35.70
2023-02-22T21:23:42.276Z,35.78
2023-02-22T21:26:16.629Z,36.42
2023-02-22T21:28:51.414Z,36.53
2023-02-22T21:31:20.496Z,36.28
2023-02-22T21:33:50.544Z,35.75
2023-02-22T21:36:17.560Z,36.90
2023-02-22T21:38:46.782Z,36.55
2023-02-22T21:41:15.988Z,38.03
2023-02-22T21:43:43.974Z,37.15
2023-02-22T21:46:11.047Z,38.03
2023-02-22T21:48:48.322Z,36.83
2023-02-22T21:51:25.553Z,37.15
2023-02-22T21:53:54.929Z,37.20
2023-02-22T21:56:24.401Z,34.47
2023-02-22T21:59:02.929Z,36.63
2023-02-22T22:01:33.321Z,35.25
2023-02-22T22:04:01.730Z,35.67
2023-02-22T22:06:30.633Z,37.10
2023-02-22T22:08:59.817Z,34.60
2023-02-22T22:11:26.543Z,36.40
2023-02-22T22:13:57.636Z,35.45
2023-02-22T22:16:27.109Z,35.70
2023-02-22T22:18:55.030Z,36.17
2023-02-22T22:21:24.216Z,35.85
2023-02-22T22:23:54.380Z,35.22
2023-02-22T22:26:22.061Z,36.95
2023-02-22T22:28:51.947Z,37.35
2023-02-22T22:31:20.895Z,35.55
2023-02-22T22:33:47.759Z,36.53
2023-02-22T22:36:16.941Z,35.92
2023-02-22T22:38:47.065Z,36.33
2023-02-22T22:41:15.341Z,35.30
2023-02-22T22:43:46.626Z,37.80
2023-02-22T22:46:15.172Z,35.50
2023-02-22T22:48:42.373Z,35.08
2023-02-22T22:51:11.819Z,34.53
2023-02-22T22:53:40.703Z,34.45
2023-02-22T22:56:19.514Z,35.50
2023-02-22T22:58:55.068Z,34.83
2023-02-22T23:01:27.324Z,35.67
2023-02-22T23:04:05.897Z,33.85
2023-02-22T23:06:35.719Z,34.92
2023-02-22T23:09:11.932Z,33.17
2023-02-22T23:11:45.175Z,33.03
2023-02-22T23:14:19.571Z,32.85
2023-02-22T23:16:50.918Z,34.30
2023-02-22T23:19:19.423Z,32.75
2023-02-22T23:21:49.952Z,33.08
2023-02-22T23:24:19.511Z,32.72
2023-02-22T23:26:49.797Z,32.85
2023-02-22T23:29:22.272Z,32.65
2023-02-22T23:31:50.441Z,32.45
2023-02-22T23:34:18.217Z,32.40
2023-02-22T23:36:44.834Z,31.75
2023-02-22T23:39:12.762Z,31.83
2023-02-22T23:41:39.300Z,32.60
2023-02-22T23:44:08.451Z,31.80
2023-02-22T23:46:36.501Z,32.38
2023-02-22T23:49:05.357Z,33.15
2023-02-22T23:51:39.448Z,31.05
2023-02-22T23:54:12.572Z,30.95
2023-02-22T23:56:40.448Z,30.60
2023-02-22T23:59:10.972Z,32.22
